createdAt,value
2018-06-04T00:00:07.645Z,12.43
2018-06-04T00:02:36.371Z,11.90
2018-06-04T00:05:05.116Z,11.53
2018-06-04T00:07:33.780Z,11.70
2018-06-04T00:10:02.523Z,11.43
2018-06-04T00:12:31.221Z,11.23
2018-06-04T00:14:59.901Z,11.77
2018-06-04T00:17:28.780Z,11.07
2018-06-04T00:19:57.547Z,10.93
2018-06-04T00:22:26.179Z,11.90
2018-06-04T00:24:54.900Z,11.07
2018-06-04T00:27:23.842Z,11.13
2018-06-04T00:29:52.499Z,11.47
2018-06-04T00:32:21.385Z,10.37
2018-06-04T00:34:50.033Z,11.33
2018-06-04T00:37:18.893Z,11.23
2018-06-04T00:39:47.610Z,10.47
2018-06-04T00:42:16.298Z,11.20
2018-06-04T00:44:45.110Z,11.60
2018-06-04T00:47:13.880Z,11.60
2018-06-04T00:49:42.624Z,12.23
2018-06-04T00:52:11.458Z,12.07
2018-06-04T00:54:40.182Z,12.80
2018-06-04T00:57:08.834Z,12.80
2018-06-04T00:59:38.372Z,12.93
2018-06-04T01:02:07.055Z,13.00
2018-06-04T01:04:35.743Z,11.87
2018-06-04T01:07:04.444Z,11.83
2018-06-04T01:09:33.207Z,12.20
2018-06-04T01:12:01.872Z,11.10
2018-06-04T01:14:30.572Z,12.07
2018-06-04T01:16:59.259Z,12.10
2018-06-04T01:19:27.907Z,12.33
2018-06-04T01:21:56.579Z,12.63
2018-06-04T01:24:25.273Z,11.57
2018-06-04T01:26:53.950Z,11.00
2018-06-04T01:29:22.624Z,11.50
2018-06-04T01:31:51.370Z,12.50
2018-06-04T01:34:20.056Z,12.03
2018-06-04T01:36:48.723Z,11.63
2018-06-04T01:39:17.387Z,12.93
2018-06-04T01:41:46.065Z,12.53
2018-06-04T01:44:14.750Z,12.70
2018-06-04T01:46:43.452Z,13.33
2018-06-04T01:49:12.131Z,13.07
2018-06-04T01:51:40.832Z,13.87
2018-06-04T01:54:09.478Z,14.50
2018-06-04T01:56:38.146Z,14.40
2018-06-04T01:59:06.870Z,18.80
2018-06-04T02:01:35.580Z,14.83
2018-06-04T02:04:04.333Z,14.67
2018-06-04T02:06:33.087Z,14.37
2018-06-04T02:09:01.814Z,14.53
2018-06-04T02:11:30.511Z,15.67
2018-06-04T02:13:59.229Z,15.50
2018-06-04T02:16:27.932Z,15.37
2018-06-04T02:18:56.620Z,17.57
2018-06-04T02:21:25.289Z,17.73
2018-06-04T02:23:53.962Z,16.77
2018-06-04T02:26:22.631Z,17.43
2018-06-04T02:28:51.306Z,17.37
2018-06-04T02:31:19.978Z,17.00
2018-06-04T02:33:48.728Z,17.17
2018-06-04T02:36:17.469Z,16.70
2018-06-04T02:38:46.128Z,17.33
2018-06-04T02:41:14.779Z,16.97
2018-06-04T02:43:43.519Z,18.03
2018-06-04T02:46:12.266Z,17.70
2018-06-04T02:48:40.958Z,18.33
2018-06-04T02:51:09.713Z,18.43
2018-06-04T02:53:38.401Z,19.77
2018-06-04T02:56:07.099Z,20.50
2018-06-04T02:58:35.791Z,20.57
2018-06-04T03:01:04.479Z,20.33
2018-06-04T03:03:33.164Z,20.93
2018-06-04T03:06:01.870Z,23.50
2018-06-04T03:08:30.627Z,22.40
2018-06-04T03:10:59.304Z,22.80
2018-06-04T03:13:27.930Z,22.73
2018-06-04T03:15:56.581Z,23.40
2018-06-04T03:18:25.241Z,23.73
2018-06-04T03:20:53.918Z,25.80
2018-06-04T03:23:22.591Z,24.07
2018-06-04T03:25:51.187Z,23.20
2018-06-04T03:28:19.857Z,24.30
2018-06-04T03:30:48.808Z,24.17
2018-06-04T03:33:17.489Z,24.33
2018-06-04T03:35:46.178Z,24.93
2018-06-04T03:38:14.856Z,25.47
2018-06-04T03:40:43.564Z,26.03
2018-06-04T03:43:12.285Z,27.47
2018-06-04T03:45:41.039Z,27.57
2018-06-04T03:48:09.752Z,27.37
2018-06-04T03:50:38.399Z,26.63
2018-06-04T03:53:07.082Z,26.70
2018-06-04T03:55:35.749Z,27.90
2018-06-04T03:58:04.488Z,26.47
2018-06-04T04:00:33.197Z,26.57
2018-06-04T04:03:02.000Z,26.27
2018-06-04T04:05:30.749Z,24.33
2018-06-04T04:07:59.470Z,25.83
2018-06-04T04:10:28.111Z,24.87
2018-06-04T04:12:56.800Z,25.60
2018-06-04T04:15:25.629Z,26.00
2018-06-04T04:17:54.370Z,25.47
2018-06-04T04:20:23.158Z,25.30
2018-06-04T04:22:51.862Z,24.80
2018-06-04T04:25:20.550Z,26.13
2018-06-04T04:27:49.316Z,24.07
2018-06-04T04:30:18.385Z,25.20
2018-06-04T04:32:47.137Z,25.07
2018-06-04T04:35:15.840Z,24.90
2018-06-04T04:37:45.542Z,25.00
2018-06-04T04:40:14.289Z,25.77
2018-06-04T04:42:43.013Z,25.20
2018-06-04T04:45:11.683Z,24.90
2018-06-04T04:47:40.459Z,24.37
2018-06-04T04:50:09.159Z,26.10
2018-06-04T04:52:37.833Z,25.67
2018-06-04T04:55:06.751Z,25.93
2018-06-04T04:57:35.451Z,28.53
2018-06-04T05:00:06.420Z,26.40
2018-06-04T05:02:35.142Z,24.77
2018-06-04T05:05:04.021Z,24.57
2018-06-04T05:07:32.733Z,25.57
2018-06-04T05:10:01.462Z,25.57
2018-06-04T05:12:30.120Z,25.67
2018-06-04T05:14:58.845Z,24.83
2018-06-04T05:17:27.550Z,24.07
2018-06-04T05:19:56.241Z,25.57
2018-06-04T05:22:24.949Z,24.40
2018-06-04T05:24:53.653Z,23.47
2018-06-04T05:27:22.439Z,24.20
2018-06-04T05:29:51.158Z,24.03
2018-06-04T05:32:19.908Z,24.53
2018-06-04T05:34:48.943Z,24.27
2018-06-04T05:37:17.605Z,24.27
2018-06-04T05:39:46.276Z,24.43
2018-06-04T05:42:14.961Z,24.37
2018-06-04T05:44:43.616Z,22.93
2018-06-04T05:47:12.297Z,22.90
2018-06-04T05:49:40.967Z,21.30
2018-06-04T05:52:09.686Z,21.63
2018-06-04T05:54:38.362Z,20.90
2018-06-04T05:57:07.007Z,23.23
2018-06-04T05:59:35.734Z,20.53
2018-06-04T06:02:04.498Z,19.60
2018-06-04T06:04:33.186Z,19.40
2018-06-04T06:07:01.859Z,19.93
2018-06-04T06:09:30.519Z,20.50
2018-06-04T06:11:59.236Z,20.43
2018-06-04T06:14:27.986Z,20.70
2018-06-04T06:16:56.691Z,19.50
2018-06-04T06:19:25.579Z,20.13
2018-06-04T06:21:58.349Z,18.80
2018-06-04T06:24:27.006Z,18.70
2018-06-04T06:26:55.690Z,19.30
2018-06-04T06:29:24.516Z,18.60
2018-06-04T06:31:53.149Z,17.23
2018-06-04T06:34:21.828Z,17.33
2018-06-04T06:36:50.486Z,16.80
2018-06-04T06:39:19.151Z,16.23
2018-06-04T06:41:47.865Z,16.93
2018-06-04T06:44:16.569Z,16.37
2018-06-04T06:46:45.247Z,13.40
2018-06-04T06:49:13.891Z,13.90
2018-06-04T06:51:42.649Z,10.47
2018-06-04T06:54:11.296Z,11.00
2018-06-04T06:56:40.020Z,10.97
2018-06-04T06:59:09.317Z,10.70
2018-06-04T07:01:38.051Z,10.53
2018-06-04T07:04:06.771Z,9.83
2018-06-04T07:06:35.444Z,9.40
2018-06-04T07:09:04.555Z,9.63
2018-06-04T07:11:33.273Z,9.23
2018-06-04T07:14:01.980Z,8.87
2018-06-04T07:16:30.651Z,9.63
2018-06-04T07:18:59.374Z,9.73
2018-06-04T07:21:28.149Z,7.90
2018-06-04T07:23:56.847Z,9.33
2018-06-04T07:26:25.581Z,9.13
2018-06-04T07:28:54.326Z,9.97
2018-06-04T07:31:22.991Z,9.60
2018-06-04T07:33:51.710Z,9.60
2018-06-04T07:36:20.343Z,8.67
2018-06-04T07:38:49.029Z,8.97
2018-06-04T07:41:17.696Z,9.13
2018-06-04T07:43:46.364Z,9.07
2018-06-04T07:46:15.958Z,9.70
2018-06-04T07:48:44.689Z,9.50
2018-06-04T07:51:13.444Z,8.23
2018-06-04T07:53:42.124Z,8.07
2018-06-04T07:56:10.835Z,8.20
2018-06-04T07:58:39.515Z,7.20
2018-06-04T08:01:08.200Z,6.70
2018-06-04T08:03:36.831Z,6.87
2018-06-04T08:06:05.645Z,6.83
2018-06-04T08:08:34.384Z,6.37
2018-06-04T08:11:03.096Z,6.53
2018-06-04T08:13:31.805Z,6.83
2018-06-04T08:16:00.545Z,6.17
2018-06-04T08:18:29.272Z,6.90
2018-06-04T08:20:57.951Z,6.27
2018-06-04T08:23:26.651Z,5.97
2018-06-04T08:25:55.357Z,6.33
2018-06-04T08:28:24.036Z,6.35
2018-06-04T08:30:52.753Z,5.87
2018-06-04T08:33:21.454Z,6.23
2018-06-04T08:35:50.143Z,6.60
2018-06-04T08:38:18.857Z,6.10
2018-06-04T08:40:47.606Z,6.37
2018-06-04T08:43:16.300Z,5.63
2018-06-04T08:45:45.048Z,5.80
2018-06-04T08:48:13.710Z,5.13
2018-06-04T08:50:42.314Z,5.13
2018-06-04T08:53:11.059Z,4.60
2018-06-04T08:55:39.791Z,5.20
2018-06-04T08:58:08.567Z,5.77
2018-06-04T09:00:37.235Z,4.77
2018-06-04T09:03:05.981Z,4.43
2018-06-04T09:05:34.693Z,4.33
2018-06-04T09:08:03.356Z,6.72
2018-06-04T09:10:32.017Z,4.37
2018-06-04T09:13:01.683Z,4.50
2018-06-04T09:15:30.335Z,4.60
2018-06-04T09:17:59.016Z,4.90
2018-06-04T09:20:27.677Z,4.67
2018-06-04T09:22:56.336Z,4.65
2018-06-04T09:25:25.019Z,3.02
2018-06-04T09:27:53.658Z,3.47
2018-06-04T09:30:22.344Z,3.60
2018-06-04T09:32:50.991Z,3.33
2018-06-04T09:35:19.695Z,3.35
2018-06-04T09:37:48.434Z,3.47
2018-06-04T09:40:17.092Z,3.50
2018-06-04T09:42:45.799Z,3.05
2018-06-04T09:45:14.485Z,2.55
2018-06-04T09:47:43.183Z,2.92
2018-06-04T09:50:11.831Z,3.72
2018-06-04T09:52:40.494Z,14.38
2018-06-04T09:55:09.164Z,3.83
2018-06-04T09:57:37.834Z,3.70
2018-06-04T10:00:07.790Z,3.30
2018-06-04T10:02:36.572Z,3.27
2018-06-04T10:05:05.246Z,3.52
2018-06-04T10:07:33.903Z,3.05
2018-06-04T10:10:02.665Z,2.90
2018-06-04T10:12:31.304Z,2.87
2018-06-04T10:14:59.948Z,3.12
2018-06-04T10:17:28.603Z,3.67
2018-06-04T10:19:57.266Z,3.58
2018-06-04T10:22:26.002Z,3.40
2018-06-04T10:24:54.649Z,3.75
2018-06-04T10:27:23.282Z,3.98
2018-06-04T10:29:51.964Z,3.62
2018-06-04T10:32:20.667Z,3.72
2018-06-04T10:34:50.005Z,3.45
2018-06-04T10:37:19.849Z,4.58
2018-06-04T10:39:48.513Z,4.70
2018-06-04T10:42:17.155Z,4.80
2018-06-04T10:44:45.956Z,4.15
2018-06-04T10:47:14.601Z,4.25
2018-06-04T10:49:43.894Z,4.58
2018-06-04T10:52:12.546Z,4.10
2018-06-04T10:54:41.203Z,4.10
2018-06-04T10:57:09.827Z,3.80
2018-06-04T10:59:38.747Z,3.85
2018-06-04T11:02:07.440Z,3.90
2018-06-04T11:04:36.063Z,4.15
2018-06-04T11:07:04.722Z,3.62
2018-06-04T11:09:33.379Z,3.52
2018-06-04T11:12:02.072Z,3.40
2018-06-04T11:14:30.715Z,3.40
2018-06-04T11:17:00.421Z,3.47
2018-06-04T11:19:29.119Z,3.17
2018-06-04T11:21:57.776Z,3.00
2018-06-04T11:24:26.452Z,2.95
2018-06-04T11:26:55.195Z,2.95
2018-06-04T11:29:23.896Z,2.95
2018-06-04T11:31:52.571Z,2.60
2018-06-04T11:34:21.206Z,2.90
2018-06-04T11:36:49.863Z,2.60
2018-06-04T11:39:18.497Z,2.80
2018-06-04T11:41:47.382Z,2.95
2018-06-04T11:44:16.029Z,2.45
2018-06-04T11:46:44.683Z,2.67
2018-06-04T11:49:13.399Z,2.37
2018-06-04T11:51:42.094Z,2.40
2018-06-04T11:54:10.842Z,2.62
2018-06-04T11:56:39.538Z,2.80
2018-06-04T11:59:08.152Z,2.60
2018-06-04T12:01:36.914Z,2.20
2018-06-04T12:04:05.574Z,3.37
2018-06-04T12:06:34.234Z,2.22
2018-06-04T12:09:02.966Z,2.00
2018-06-04T12:11:31.689Z,2.30
2018-06-04T12:14:00.339Z,2.40
2018-06-04T12:16:29.034Z,2.50
2018-06-04T12:18:57.675Z,2.45
2018-06-04T12:21:26.363Z,2.50
2018-06-04T12:23:55.078Z,2.70
2018-06-04T12:26:23.779Z,2.40
2018-06-04T12:28:52.482Z,2.77
2018-06-04T12:31:21.131Z,2.15
2018-06-04T12:33:49.895Z,2.77
2018-06-04T12:36:18.544Z,2.70
2018-06-04T12:38:47.235Z,2.85
2018-06-04T12:41:16.006Z,2.52
2018-06-04T12:43:44.794Z,2.75
2018-06-04T12:46:13.483Z,2.98
2018-06-04T12:48:42.167Z,2.98
2018-06-04T12:51:10.802Z,2.70
2018-06-04T12:53:39.523Z,2.90
2018-06-04T12:56:08.259Z,2.72
2018-06-04T12:58:36.902Z,2.60
2018-06-04T13:01:05.592Z,2.77
2018-06-04T13:03:34.286Z,2.90
2018-06-04T13:06:03.052Z,2.62
2018-06-04T13:08:31.756Z,2.70
2018-06-04T13:11:00.431Z,2.80
2018-06-04T13:13:29.071Z,2.50
2018-06-04T13:15:57.798Z,2.90
2018-06-04T13:18:26.535Z,3.00
2018-06-04T13:20:55.279Z,3.00
2018-06-04T13:23:23.971Z,2.77
2018-06-04T13:25:52.672Z,3.00
2018-06-04T13:28:21.299Z,3.05
2018-06-04T13:30:50.041Z,2.62
2018-06-04T13:33:18.722Z,2.92
2018-06-04T13:35:47.458Z,2.80
2018-06-04T13:38:16.133Z,2.90
2018-06-04T13:40:44.858Z,2.90
2018-06-04T13:43:13.520Z,2.92
2018-06-04T13:45:43.307Z,2.90
2018-06-04T13:48:13.124Z,2.90
2018-06-04T13:50:41.788Z,3.00
2018-06-04T13:53:10.511Z,3.17
2018-06-04T13:55:39.218Z,3.10
2018-06-04T13:58:07.864Z,2.85
2018-06-04T14:00:36.569Z,3.12
2018-06-04T14:03:05.266Z,3.83
2018-06-04T14:05:33.873Z,3.52
2018-06-04T14:08:02.519Z,3.80
2018-06-04T14:10:31.224Z,3.92
2018-06-04T14:12:59.928Z,3.52
2018-06-04T14:15:28.622Z,3.80
2018-06-04T14:17:57.311Z,3.85
2018-06-04T14:20:26.061Z,3.47
2018-06-04T14:22:55.279Z,3.40
2018-06-04T14:25:23.980Z,3.90
2018-06-04T14:27:52.625Z,3.83
2018-06-04T14:30:21.441Z,3.75
2018-06-04T14:32:50.145Z,3.80
2018-06-04T14:35:18.823Z,3.67
2018-06-04T14:37:47.549Z,3.20
2018-06-04T14:40:16.357Z,3.10
2018-06-04T14:42:45.390Z,3.02
2018-06-04T14:45:14.039Z,3.52
2018-06-04T14:47:42.691Z,3.22
2018-06-04T14:50:11.364Z,3.40
2018-06-04T14:52:39.986Z,5.35
2018-06-04T14:55:08.613Z,3.72
2018-06-04T14:57:37.300Z,4.40
2018-06-04T15:00:07.063Z,3.95
2018-06-04T15:02:35.756Z,3.85
2018-06-04T15:05:04.563Z,3.98
2018-06-04T15:07:33.242Z,3.80
2018-06-04T15:10:01.926Z,3.85
2018-06-04T15:12:30.590Z,4.55
2018-06-04T15:14:59.239Z,3.67
2018-06-04T15:17:28.022Z,4.12
2018-06-04T15:19:56.750Z,4.12
2018-06-04T15:22:25.475Z,3.62
2018-06-04T15:24:54.225Z,4.42
2018-06-04T15:27:22.982Z,4.10
2018-06-04T15:29:51.917Z,3.60
2018-06-04T15:32:20.681Z,3.87
2018-06-04T15:34:49.527Z,3.55
2018-06-04T15:37:18.524Z,3.70
2018-06-04T15:39:47.136Z,3.70
2018-06-04T15:42:15.780Z,3.90
2018-06-04T15:44:44.510Z,4.03
2018-06-04T15:47:13.229Z,4.08
2018-06-04T15:49:41.859Z,3.92
2018-06-04T15:52:10.527Z,3.70
2018-06-04T15:54:39.288Z,4.25
2018-06-04T15:57:07.931Z,4.45
2018-06-04T15:59:36.561Z,4.55
2018-06-04T16:02:05.330Z,4.20
2018-06-04T16:04:34.032Z,4.42
2018-06-04T16:07:02.655Z,8.00
2018-06-04T16:09:31.332Z,4.85
2018-06-04T16:12:00.049Z,5.30
2018-06-04T16:14:28.696Z,4.85
2018-06-04T16:16:57.403Z,4.53
2018-06-04T16:19:26.028Z,4.75
2018-06-04T16:21:54.785Z,4.83
2018-06-04T16:24:23.404Z,4.53
2018-06-04T16:26:52.105Z,4.72
2018-06-04T16:29:20.775Z,4.55
2018-06-04T16:31:49.417Z,4.53
2018-06-04T16:34:18.056Z,5.05
2018-06-04T16:36:46.677Z,4.67
2018-06-04T16:39:15.347Z,4.85
2018-06-04T16:41:44.744Z,4.22
2018-06-04T16:44:13.433Z,4.15
2018-06-04T16:46:42.075Z,3.80
2018-06-04T16:49:10.711Z,3.52
2018-06-04T16:51:39.392Z,4.50
2018-06-04T16:54:08.218Z,7.28
2018-06-04T16:56:36.884Z,4.57
2018-06-04T16:59:05.530Z,4.50
2018-06-04T17:01:34.302Z,4.90
2018-06-04T17:04:02.944Z,4.50
2018-06-04T17:06:32.639Z,4.50
2018-06-04T17:09:01.354Z,4.33
2018-06-04T17:11:30.061Z,4.47
2018-06-04T17:14:00.755Z,4.60
2018-06-04T17:16:30.152Z,4.23
2018-06-04T17:18:58.826Z,4.13
2018-06-04T17:21:27.550Z,4.43
2018-06-04T17:23:56.339Z,4.10
2018-06-04T17:26:25.048Z,4.00
2018-06-04T17:28:53.737Z,4.00
2018-06-04T17:31:22.431Z,4.20
2018-06-04T17:33:52.715Z,3.87
2018-06-04T17:36:21.491Z,4.10
2018-06-04T17:38:50.531Z,3.83
2018-06-04T17:41:19.241Z,3.93
2018-06-04T17:43:47.943Z,4.40
2018-06-04T17:46:16.901Z,4.30
2018-06-04T17:48:45.623Z,4.83
2018-06-04T17:51:14.727Z,4.70
2018-06-04T17:53:43.412Z,5.40
2018-06-04T17:56:12.054Z,3.93
2018-06-04T17:58:40.725Z,4.17
2018-06-04T18:01:09.484Z,4.83
2018-06-04T18:03:38.151Z,5.50
2018-06-04T18:06:06.866Z,5.27
2018-06-04T18:08:36.326Z,4.90
2018-06-04T18:11:05.326Z,5.30
2018-06-04T18:13:34.488Z,5.20
2018-06-04T18:16:03.221Z,5.03
2018-06-04T18:18:31.836Z,4.83
2018-06-04T18:21:00.557Z,5.67
2018-06-04T18:23:29.227Z,5.40
2018-06-04T18:25:59.018Z,6.00
2018-06-04T18:28:27.741Z,5.23
2018-06-04T18:30:56.483Z,5.13
2018-06-04T18:33:25.244Z,4.90
2018-06-04T18:35:53.983Z,4.87
2018-06-04T18:38:23.336Z,4.83
2018-06-04T18:40:52.127Z,4.53
2018-06-04T18:43:20.817Z,4.53
2018-06-04T18:45:49.716Z,4.10
2018-06-04T18:48:18.430Z,4.23
2018-06-04T18:50:48.242Z,4.13
2018-06-04T18:53:16.927Z,4.07
2018-06-04T18:55:45.649Z,5.07
2018-06-04T18:58:14.477Z,4.17
2018-06-04T19:00:43.170Z,4.67
2018-06-04T19:03:12.863Z,4.53
2018-06-04T19:05:45.284Z,4.83
2018-06-04T19:08:14.068Z,5.23
2018-06-04T19:10:42.714Z,5.47
2018-06-04T19:13:11.384Z,5.10
2018-06-04T19:15:40.222Z,5.00
2018-06-04T19:18:09.823Z,5.70
2018-06-04T19:20:40.134Z,5.73
2018-06-04T19:23:08.797Z,6.00
2018-06-04T19:25:38.078Z,4.90
2018-06-04T19:28:06.731Z,5.17
2018-06-04T19:30:35.438Z,5.33
2018-06-04T19:33:04.112Z,5.80
2018-06-04T19:35:32.836Z,5.77
2018-06-04T19:38:01.652Z,7.47
2018-06-04T19:40:30.325Z,7.37
2018-06-04T19:42:59.011Z,7.00
2018-06-04T19:45:27.654Z,6.10
2018-06-04T19:47:56.321Z,5.63
2018-06-04T19:50:24.948Z,6.77
2018-06-04T19:52:53.629Z,6.77
2018-06-04T19:55:22.334Z,6.87
2018-06-04T19:57:51.088Z,8.97
2018-06-04T20:00:19.900Z,9.23
2018-06-04T20:02:48.800Z,7.67
2018-06-04T20:05:17.425Z,7.97
2018-06-04T20:07:46.069Z,7.40
2018-06-04T20:10:14.718Z,6.30
2018-06-04T20:12:43.414Z,7.17
2018-06-04T20:15:12.220Z,7.43
2018-06-04T20:17:40.882Z,9.63
2018-06-04T20:20:09.928Z,9.03
2018-06-04T20:22:38.607Z,9.67
2018-06-04T20:25:07.419Z,10.60
2018-06-04T20:27:36.099Z,10.87
2018-06-04T20:30:05.797Z,10.30
2018-06-04T20:32:34.747Z,9.40
2018-06-04T20:35:03.508Z,9.23
2018-06-04T20:37:32.303Z,7.67
2018-06-04T20:40:01.070Z,7.53
2018-06-04T20:42:29.749Z,7.30
2018-06-04T20:44:58.424Z,7.97
2018-06-04T20:47:27.465Z,7.60
2018-06-04T20:49:56.121Z,7.60
2018-06-04T20:52:24.878Z,7.30
2018-06-04T20:54:53.639Z,8.00
2018-06-04T20:57:22.405Z,6.40
2018-06-04T20:59:51.024Z,6.70
2018-06-04T21:02:19.710Z,5.73
2018-06-04T21:04:48.402Z,5.93
2018-06-04T21:07:17.067Z,6.50
2018-06-04T21:09:50.286Z,7.27
2018-06-04T21:12:19.030Z,7.37
2018-06-04T21:14:47.725Z,7.20
2018-06-04T21:17:16.371Z,7.40
2018-06-04T21:19:45.064Z,7.43
2018-06-04T21:22:13.717Z,6.73
2018-06-04T21:24:42.407Z,6.73
2018-06-04T21:27:11.171Z,6.80
2018-06-04T21:29:39.819Z,6.60
2018-06-04T21:32:08.468Z,7.13
2018-06-04T21:34:37.129Z,7.27
2018-06-04T21:37:05.933Z,7.47
2018-06-04T21:39:34.861Z,7.13
2018-06-04T21:42:03.604Z,7.33
2018-06-04T21:44:32.241Z,9.07
2018-06-04T21:47:01.002Z,9.70
2018-06-04T21:49:29.633Z,9.37
2018-06-04T21:51:58.381Z,9.80
2018-06-04T21:54:28.108Z,9.33
2018-06-04T21:56:57.407Z,10.33
2018-06-04T21:59:26.035Z,10.57
2018-06-04T22:01:55.424Z,23.30
2018-06-04T22:04:24.147Z,10.27
2018-06-04T22:06:52.968Z,9.47
2018-06-04T22:09:21.695Z,9.40
2018-06-04T22:11:50.340Z,9.93
2018-06-04T22:14:18.995Z,9.13
2018-06-04T22:16:47.812Z,10.00
2018-06-04T22:19:17.428Z,9.60
2018-06-04T22:21:46.048Z,9.23
2018-06-04T22:24:14.693Z,7.67
2018-06-04T22:26:43.335Z,7.80
2018-06-04T22:29:12.039Z,8.27
2018-06-04T22:31:40.743Z,7.30
2018-06-04T22:34:09.400Z,7.87
2018-06-04T22:36:38.069Z,8.30
2018-06-04T22:39:09.264Z,7.77
2018-06-04T22:41:37.951Z,9.43
2018-06-04T22:44:06.753Z,10.30
2018-06-04T22:46:35.554Z,10.47
2018-06-04T22:49:07.682Z,10.63
2018-06-04T22:51:36.675Z,11.17
2018-06-04T22:54:05.315Z,11.53
2018-06-04T22:56:33.961Z,11.03
2018-06-04T22:59:02.586Z,11.23
2018-06-04T23:01:31.276Z,11.67
2018-06-04T23:03:59.941Z,10.30
2018-06-04T23:19:52.278Z,11.10
2018-06-04T23:22:20.942Z,10.17
2018-06-04T23:24:49.579Z,10.43
2018-06-04T23:27:18.195Z,11.53
2018-06-04T23:29:46.702Z,11.90
2018-06-04T23:32:15.293Z,11.40
2018-06-04T23:34:44.608Z,11.50
2018-06-04T23:37:13.283Z,12.33
2018-06-04T23:39:41.898Z,12.43
2018-06-04T23:42:10.546Z,13.67
2018-06-04T23:44:39.190Z,14.20
2018-06-04T23:47:07.918Z,14.10
2018-06-04T23:49:36.643Z,15.33
2018-06-04T23:52:05.336Z,14.30
2018-06-04T23:54:33.955Z,15.63
2018-06-04T23:57:02.612Z,15.57
2018-06-04T23:59:31.218Z,14.57
